createdAt,value
2017-05-26T00:01:02.494Z,7.14
2017-05-26T00:03:29.208Z,6.70
2017-05-26T00:05:55.903Z,5.80
2017-05-26T00:08:22.632Z,5.36
2017-05-26T00:10:49.338Z,6.26
2017-05-26T00:13:16.036Z,6.34
2017-05-26T00:15:42.752Z,5.94
2017-05-26T00:18:09.461Z,5.80
2017-05-26T00:20:36.193Z,5.38
2017-05-26T00:23:02.920Z,4.86
2017-05-26T00:25:29.620Z,4.96
2017-05-26T00:27:56.361Z,5.42
2017-05-26T00:30:23.071Z,5.56
2017-05-26T00:32:49.775Z,5.98
2017-05-26T00:35:16.499Z,5.22
2017-05-26T00:37:43.208Z,7.32
2017-05-26T00:40:09.927Z,5.34
2017-05-26T00:42:36.657Z,6.16
2017-05-26T00:45:03.371Z,7.10
2017-05-26T00:47:30.092Z,6.20
2017-05-26T00:49:57.096Z,6.78
2017-05-26T00:52:23.803Z,7.72
2017-05-26T00:54:50.507Z,6.92
2017-05-26T00:57:17.223Z,5.84
2017-05-26T00:59:43.935Z,5.64
2017-05-26T01:02:10.899Z,6.32
2017-05-26T01:04:37.605Z,5.18
2017-05-26T01:07:04.362Z,6.20
2017-05-26T01:09:31.068Z,5.64
2017-05-26T01:11:57.768Z,5.56
2017-05-26T01:14:24.497Z,5.50
2017-05-26T01:16:51.191Z,4.56
2017-05-26T01:19:17.903Z,5.94
2017-05-26T01:21:44.627Z,6.44
2017-05-26T01:24:11.323Z,4.98
2017-05-26T01:26:38.039Z,5.80
2017-05-26T01:29:04.755Z,4.80
2017-05-26T01:31:32.924Z,5.42
2017-05-26T01:34:00.288Z,5.70
2017-05-26T01:36:27.015Z,5.60
2017-05-26T01:38:53.752Z,5.60
2017-05-26T01:41:20.463Z,5.62
2017-05-26T01:43:47.172Z,5.22
2017-05-26T01:46:13.914Z,4.34
2017-05-26T01:48:40.606Z,5.10
2017-05-26T01:51:07.323Z,5.88
2017-05-26T01:53:34.036Z,6.94
2017-05-26T01:56:00.800Z,5.76
2017-05-26T01:58:27.525Z,5.28
2017-05-26T02:00:54.259Z,4.98
2017-05-26T02:03:20.970Z,5.06
2017-05-26T02:05:46.928Z,4.76
2017-05-26T02:08:13.660Z,4.88
2017-05-26T02:10:40.355Z,5.44
2017-05-26T02:13:07.053Z,5.58
2017-05-26T02:15:33.787Z,4.64
2017-05-26T02:18:00.487Z,5.48
2017-05-26T02:20:27.327Z,5.50
2017-05-26T02:22:54.048Z,7.38
2017-05-26T02:25:20.735Z,7.04
2017-05-26T02:27:47.432Z,7.88
2017-05-26T02:30:14.128Z,7.82
2017-05-26T02:32:40.857Z,7.30
2017-05-26T02:35:07.592Z,7.14
2017-05-26T02:37:33.548Z,7.52
2017-05-26T02:40:00.247Z,7.70
2017-05-26T02:42:26.960Z,9.22
2017-05-26T02:44:53.646Z,12.04
2017-05-26T02:47:20.413Z,8.02
2017-05-26T02:49:47.216Z,6.42
2017-05-26T02:52:13.910Z,14.58
2017-05-26T02:54:40.615Z,37.46
2017-05-26T02:57:07.347Z,12.94
2017-05-26T02:59:34.061Z,10.92
2017-05-26T03:02:00.760Z,13.04
2017-05-26T03:04:27.479Z,16.86
2017-05-26T03:06:54.192Z,13.12
2017-05-26T03:09:20.887Z,12.48
2017-05-26T03:11:47.618Z,17.36
2017-05-26T03:14:14.318Z,14.92
2017-05-26T03:16:41.023Z,11.38
2017-05-26T03:19:07.859Z,10.88
2017-05-26T03:21:34.578Z,10.72
2017-05-26T03:24:01.276Z,11.76
2017-05-26T03:26:28.001Z,9.64
2017-05-26T03:28:54.695Z,12.14
2017-05-26T03:31:21.402Z,13.30
2017-05-26T03:33:48.128Z,11.32
2017-05-26T03:36:14.822Z,13.66
2017-05-26T03:38:41.518Z,22.74
2017-05-26T03:41:08.227Z,22.70
2017-05-26T03:43:35.252Z,20.16
2017-05-26T03:46:01.983Z,26.58
2017-05-26T03:48:28.687Z,16.42
2017-05-26T03:50:55.384Z,16.80
2017-05-26T03:53:22.122Z,14.62
2017-05-26T03:55:48.820Z,15.96
2017-05-26T03:58:15.571Z,16.32
2017-05-26T04:00:42.276Z,12.96
2017-05-26T04:03:08.996Z,13.62
2017-05-26T04:05:35.725Z,12.08
2017-05-26T04:08:02.419Z,11.64
2017-05-26T04:10:29.119Z,28.84
2017-05-26T04:12:55.848Z,13.80
2017-05-26T04:15:22.555Z,19.74
2017-05-26T04:17:49.264Z,37.68
2017-05-26T04:20:16.014Z,15.40
2017-05-26T04:22:42.731Z,12.80
2017-05-26T04:25:09.460Z,13.00
2017-05-26T04:27:36.162Z,12.48
2017-05-26T04:30:02.863Z,15.70
2017-05-26T04:32:29.575Z,12.28
2017-05-26T04:34:56.285Z,25.46
2017-05-26T04:37:23.020Z,11.28
2017-05-26T04:39:49.727Z,13.18
2017-05-26T04:42:16.433Z,12.62
2017-05-26T04:44:43.177Z,20.72
2017-05-26T04:47:09.884Z,12.12
2017-05-26T04:49:36.598Z,20.80
2017-05-26T04:52:03.323Z,16.50
2017-05-26T04:54:30.026Z,11.84
2017-05-26T04:56:56.727Z,11.52
2017-05-26T04:59:23.457Z,12.66
2017-05-26T05:01:50.154Z,11.80
2017-05-26T05:04:16.871Z,12.84
2017-05-26T05:06:43.606Z,12.30
2017-05-26T05:09:10.304Z,13.40
2017-05-26T05:11:37.007Z,12.74
2017-05-26T05:14:03.744Z,14.18
2017-05-26T05:16:30.451Z,15.48
2017-05-26T05:18:57.156Z,15.56
2017-05-26T05:21:23.884Z,15.14
2017-05-26T05:23:50.591Z,17.46
2017-05-26T05:26:17.304Z,18.38
2017-05-26T05:28:44.031Z,16.76
2017-05-26T05:31:10.735Z,25.24
2017-05-26T05:33:37.447Z,26.12
2017-05-26T05:36:04.391Z,24.88
2017-05-26T05:38:31.092Z,20.54
2017-05-26T05:40:57.844Z,23.80
2017-05-26T05:43:24.557Z,20.82
2017-05-26T05:45:51.280Z,20.84
2017-05-26T05:48:18.007Z,26.94
2017-05-26T05:50:44.720Z,21.32
2017-05-26T05:53:11.427Z,25.54
2017-05-26T05:55:38.176Z,25.72
2017-05-26T05:58:04.893Z,22.74
2017-05-26T06:00:31.595Z,23.38
2017-05-26T06:02:58.388Z,21.82
2017-05-26T06:05:25.124Z,24.96
2017-05-26T06:07:51.878Z,26.62
2017-05-26T06:10:18.592Z,24.32
2017-05-26T06:12:45.295Z,31.80
2017-05-26T06:15:12.023Z,37.94
2017-05-26T06:17:38.731Z,24.74
2017-05-26T06:20:05.463Z,26.32
2017-05-26T06:22:32.196Z,26.06
2017-05-26T06:24:58.968Z,27.28
2017-05-26T06:27:25.680Z,27.32
2017-05-26T06:29:52.388Z,27.46
2017-05-26T06:32:19.124Z,28.42
2017-05-26T06:34:45.839Z,27.08
2017-05-26T06:37:12.546Z,26.68
2017-05-26T06:39:39.276Z,26.36
2017-05-26T06:42:05.970Z,26.46
2017-05-26T06:44:32.672Z,22.50
2017-05-26T06:46:59.408Z,24.88
2017-05-26T06:49:26.113Z,23.64
2017-05-26T06:51:52.820Z,28.08
2017-05-26T06:54:19.567Z,23.84
2017-05-26T06:56:46.271Z,23.38
2017-05-26T06:59:12.985Z,27.00
2017-05-26T07:01:39.711Z,22.92
2017-05-26T07:04:06.447Z,21.70
2017-05-26T07:06:33.187Z,20.42
2017-05-26T07:08:59.893Z,20.26
2017-05-26T07:11:26.596Z,22.82
2017-05-26T07:13:53.333Z,21.96
2017-05-26T07:16:20.026Z,18.32
2017-05-26T07:18:46.760Z,19.36
2017-05-26T07:21:13.497Z,17.12
2017-05-26T07:23:40.240Z,21.94
2017-05-26T07:26:06.191Z,19.04
2017-05-26T07:28:32.968Z,17.04
2017-05-26T07:30:59.671Z,18.32
2017-05-26T07:33:26.380Z,18.98
2017-05-26T07:35:53.103Z,15.36
2017-05-26T07:38:19.811Z,16.10
2017-05-26T07:40:46.560Z,17.68
2017-05-26T07:43:13.270Z,17.68
2017-05-26T07:45:39.987Z,18.30
2017-05-26T07:48:06.756Z,15.42
2017-05-26T07:50:33.463Z,15.48
2017-05-26T07:53:00.176Z,15.98
2017-05-26T07:55:26.888Z,17.84
2017-05-26T07:57:53.596Z,16.98
2017-05-26T08:00:20.351Z,20.52
2017-05-26T08:02:47.061Z,17.02
2017-05-26T08:05:13.766Z,21.44
2017-05-26T08:07:40.815Z,21.76
2017-05-26T08:10:07.524Z,18.54
2017-05-26T08:12:34.303Z,18.72
2017-05-26T08:15:01.073Z,17.52
2017-05-26T08:17:27.781Z,17.66
2017-05-26T08:19:54.516Z,18.20
2017-05-26T08:22:21.220Z,16.94
2017-05-26T08:24:47.955Z,18.42
2017-05-26T08:27:14.661Z,16.30
2017-05-26T08:29:41.368Z,16.62
2017-05-26T08:32:08.101Z,16.08
2017-05-26T08:34:34.852Z,15.24
2017-05-26T08:37:01.817Z,16.08
2017-05-26T08:39:28.551Z,17.28
2017-05-26T08:41:55.255Z,17.46
2017-05-26T08:44:21.986Z,16.44
2017-05-26T08:46:48.716Z,15.98
2017-05-26T08:49:15.440Z,17.44
2017-05-26T08:51:42.180Z,18.50
2017-05-26T08:54:08.899Z,20.22
2017-05-26T08:56:35.702Z,19.10
2017-05-26T08:59:02.427Z,22.42
2017-05-26T09:01:29.144Z,22.54
2017-05-26T09:03:55.860Z,24.02
2017-05-26T09:06:22.589Z,22.60
2017-05-26T09:08:49.296Z,21.88
2017-05-26T09:11:16.037Z,19.64
2017-05-26T09:13:42.788Z,18.20
2017-05-26T09:16:09.495Z,16.78
2017-05-26T09:18:36.206Z,17.16
2017-05-26T09:21:02.940Z,17.42
2017-05-26T09:23:29.644Z,16.80
2017-05-26T09:25:56.361Z,16.22
2017-05-26T09:28:23.097Z,15.58
2017-05-26T09:30:49.817Z,15.74
2017-05-26T09:33:16.767Z,14.24
2017-05-26T09:35:43.499Z,16.28
2017-05-26T09:38:10.580Z,15.76
2017-05-26T09:40:37.293Z,15.62
2017-05-26T09:43:04.004Z,15.36
2017-05-26T09:45:30.706Z,15.50
2017-05-26T09:47:57.459Z,15.52
2017-05-26T09:50:24.156Z,14.14
2017-05-26T09:52:50.863Z,15.04
2017-05-26T09:55:17.589Z,15.98
2017-05-26T09:57:44.304Z,16.12
2017-05-26T10:00:11.028Z,14.12
2017-05-26T10:02:37.754Z,14.50
2017-05-26T10:05:04.460Z,13.98
2017-05-26T10:07:31.183Z,15.38
2017-05-26T10:09:57.952Z,15.60
2017-05-26T10:12:24.665Z,14.90
2017-05-26T10:14:51.397Z,15.94
2017-05-26T10:17:18.111Z,14.82
2017-05-26T10:19:45.827Z,14.96
2017-05-26T10:22:12.532Z,13.12
2017-05-26T10:24:39.231Z,13.92
2017-05-26T10:27:05.963Z,15.94
2017-05-26T10:29:32.669Z,16.36
2017-05-26T10:31:59.375Z,15.48
2017-05-26T10:34:26.093Z,16.62
2017-05-26T10:36:52.792Z,14.52
2017-05-26T10:39:19.528Z,14.42
2017-05-26T10:41:46.235Z,14.36
2017-05-26T10:44:12.935Z,14.28
2017-05-26T10:46:39.675Z,14.74
2017-05-26T10:49:06.375Z,13.90
2017-05-26T10:51:33.121Z,11.76
2017-05-26T10:53:59.860Z,13.36
2017-05-26T10:56:26.572Z,12.82
2017-05-26T10:58:53.279Z,13.88
2017-05-26T11:01:19.991Z,12.50
2017-05-26T11:03:46.683Z,11.38
2017-05-26T11:06:13.406Z,12.40
2017-05-26T11:08:40.111Z,12.00
2017-05-26T11:11:06.865Z,11.76
2017-05-26T11:13:33.586Z,11.80
2017-05-26T11:16:00.289Z,10.58
2017-05-26T11:18:26.992Z,11.04
2017-05-26T11:20:53.727Z,11.22
2017-05-26T11:23:20.432Z,11.70
2017-05-26T11:25:47.135Z,10.44
2017-05-26T11:28:13.851Z,9.02
2017-05-26T11:30:40.558Z,7.42
2017-05-26T11:33:07.289Z,8.72
2017-05-26T11:35:34.200Z,9.94
2017-05-26T11:38:01.395Z,9.58
2017-05-26T11:40:28.103Z,8.64
2017-05-26T11:42:54.790Z,9.40
2017-05-26T11:45:22.131Z,9.08
2017-05-26T11:47:48.991Z,9.64
2017-05-26T11:50:15.712Z,8.22
2017-05-26T11:52:42.436Z,8.72
2017-05-26T11:55:09.147Z,8.74
2017-05-26T11:57:35.881Z,8.32
2017-05-26T12:00:02.591Z,8.22
2017-05-26T12:02:29.304Z,7.70
2017-05-26T12:04:56.011Z,6.80
2017-05-26T12:07:22.291Z,6.22
2017-05-26T12:09:49.012Z,5.46
2017-05-26T12:12:15.756Z,4.82
2017-05-26T12:14:42.460Z,6.42
2017-05-26T12:17:09.171Z,7.04
2017-05-26T12:19:35.912Z,6.20
2017-05-26T12:22:02.642Z,6.08
2017-05-26T12:24:29.344Z,6.12
2017-05-26T12:26:56.072Z,5.70
2017-05-26T12:29:22.784Z,4.54
2017-05-26T12:31:49.523Z,4.76
2017-05-26T12:34:16.238Z,4.22
2017-05-26T12:36:42.940Z,4.56
2017-05-26T12:39:09.667Z,4.82
2017-05-26T12:41:36.369Z,4.96
2017-05-26T12:44:03.079Z,4.80
2017-05-26T12:46:29.817Z,4.28
2017-05-26T12:48:56.546Z,4.06
2017-05-26T12:51:23.248Z,4.74
2017-05-26T12:53:49.979Z,4.20
2017-05-26T12:56:16.666Z,3.90
2017-05-26T12:58:43.357Z,3.40
2017-05-26T13:01:10.071Z,2.98
2017-05-26T13:03:36.762Z,2.54
2017-05-26T13:06:03.488Z,2.68
2017-05-26T13:08:30.179Z,2.76
2017-05-26T13:10:56.880Z,2.88
2017-05-26T13:13:23.579Z,2.84
2017-05-26T13:15:50.319Z,2.46
2017-05-26T13:18:17.031Z,2.40
2017-05-26T13:20:43.720Z,2.90
2017-05-26T13:23:10.417Z,8.56
2017-05-26T13:25:37.131Z,3.62
2017-05-26T13:28:03.828Z,4.96
2017-05-26T13:30:30.531Z,2.98
2017-05-26T13:32:57.234Z,3.66
2017-05-26T13:35:23.931Z,3.24
2017-05-26T13:37:50.633Z,3.54
2017-05-26T13:40:17.355Z,2.40
2017-05-26T13:42:44.123Z,2.86
2017-05-26T13:45:10.810Z,2.40
2017-05-26T13:47:37.559Z,2.62
2017-05-26T13:50:04.275Z,2.84
2017-05-26T13:52:31.016Z,3.70
2017-05-26T13:54:57.729Z,3.56
2017-05-26T13:57:24.500Z,3.32
2017-05-26T13:59:51.187Z,4.38
2017-05-26T14:02:17.895Z,4.54
2017-05-26T14:04:44.697Z,3.46
2017-05-26T14:07:11.415Z,3.80
2017-05-26T14:09:38.112Z,3.00
2017-05-26T14:12:04.824Z,2.98
2017-05-26T14:14:31.807Z,3.50
2017-05-26T14:16:58.508Z,3.40
2017-05-26T14:19:25.227Z,4.62
2017-05-26T14:21:51.939Z,4.32
2017-05-26T14:24:18.636Z,4.50
2017-05-26T14:26:45.343Z,5.00
2017-05-26T14:29:12.052Z,4.82
2017-05-26T14:31:38.780Z,5.40
2017-05-26T14:34:05.484Z,3.82
2017-05-26T14:36:32.179Z,5.26
2017-05-26T14:38:58.899Z,4.58
2017-05-26T14:41:25.595Z,4.10
2017-05-26T14:43:52.307Z,4.68
2017-05-26T14:46:19.003Z,5.40
2017-05-26T14:48:45.703Z,5.22
2017-05-26T14:51:12.536Z,4.72
2017-05-26T14:53:39.223Z,5.30
2017-05-26T14:56:05.916Z,5.30
2017-05-26T14:58:32.637Z,5.82
2017-05-26T15:00:59.332Z,6.14
2017-05-26T15:03:26.028Z,5.16
2017-05-26T15:05:52.735Z,6.58
2017-05-26T15:08:19.427Z,5.78
2017-05-26T15:10:46.120Z,5.00
2017-05-26T15:13:12.828Z,4.06
2017-05-26T15:15:39.535Z,4.02
2017-05-26T15:18:06.253Z,5.00
2017-05-26T15:20:32.938Z,4.44
2017-05-26T15:22:59.628Z,4.84
2017-05-26T15:25:26.333Z,4.46
2017-05-26T15:27:53.025Z,5.14
2017-05-26T15:30:19.763Z,4.64
2017-05-26T15:32:46.451Z,6.54
2017-05-26T15:35:13.130Z,5.14
2017-05-26T15:37:39.810Z,4.60
2017-05-26T15:40:08.278Z,4.20
2017-05-26T15:42:35.011Z,4.94
2017-05-26T15:45:01.816Z,5.16
2017-05-26T15:47:28.513Z,4.56
2017-05-26T15:49:55.232Z,5.72
2017-05-26T15:52:21.924Z,5.50
2017-05-26T15:54:48.640Z,4.98
2017-05-26T15:57:15.323Z,4.68
2017-05-26T15:59:41.471Z,4.48
2017-05-26T16:02:08.175Z,5.00
2017-05-26T16:04:34.860Z,5.36
2017-05-26T16:07:01.915Z,6.20
2017-05-26T16:09:28.760Z,5.14
2017-05-26T16:11:55.452Z,4.96
2017-05-26T16:14:22.171Z,6.18
2017-05-26T16:16:48.927Z,4.16
2017-05-26T16:19:15.684Z,4.64
2017-05-26T16:21:42.392Z,4.52
2017-05-26T16:24:09.102Z,5.32
2017-05-26T16:26:37.909Z,5.44
2017-05-26T16:29:04.615Z,5.00
2017-05-26T16:31:31.323Z,4.66
2017-05-26T16:33:58.021Z,5.90
2017-05-26T16:36:24.755Z,4.00
2017-05-26T16:38:51.472Z,4.16
2017-05-26T16:41:18.175Z,4.94
2017-05-26T16:43:44.164Z,5.10
2017-05-26T16:46:10.116Z,4.58
2017-05-26T16:48:36.835Z,4.36
2017-05-26T16:51:03.573Z,5.36
2017-05-26T16:53:30.292Z,4.70
2017-05-26T16:55:57.020Z,4.34
2017-05-26T16:58:23.755Z,4.80
2017-05-26T17:00:50.479Z,4.64
2017-05-26T17:03:17.188Z,4.90
2017-05-26T17:05:43.927Z,8.76
2017-05-26T17:08:10.624Z,17.18
2017-05-26T17:10:37.340Z,6.24
2017-05-26T17:13:04.080Z,6.46
2017-05-26T17:15:30.843Z,6.04
2017-05-26T17:17:57.571Z,6.06
2017-05-26T17:20:24.302Z,6.56
2017-05-26T17:22:51.019Z,7.48
2017-05-26T17:25:17.756Z,8.44
2017-05-26T17:27:44.481Z,5.74
2017-05-26T17:30:11.192Z,7.00
2017-05-26T17:32:37.948Z,6.10
2017-05-26T17:35:04.660Z,5.84
2017-05-26T17:37:31.372Z,8.06
2017-05-26T17:39:58.150Z,8.26
2017-05-26T17:42:24.859Z,7.02
2017-05-26T17:44:51.589Z,6.54
2017-05-26T17:47:18.292Z,8.94
2017-05-26T17:49:45.004Z,7.88
2017-05-26T17:52:11.728Z,6.60
2017-05-26T17:54:38.421Z,6.70
2017-05-26T17:57:05.189Z,7.62
2017-05-26T17:59:31.888Z,7.02
2017-05-26T18:01:58.580Z,7.00
2017-05-26T18:04:25.599Z,6.96
2017-05-26T18:06:52.292Z,7.02
2017-05-26T18:09:18.987Z,7.30
2017-05-26T18:11:45.699Z,5.88
2017-05-26T18:14:12.391Z,6.92
2017-05-26T18:16:39.141Z,7.48
2017-05-26T18:19:05.854Z,6.40
2017-05-26T18:21:32.543Z,6.58
2017-05-26T18:23:59.273Z,6.62
2017-05-26T18:26:25.968Z,7.08
2017-05-26T18:28:52.685Z,5.76
2017-05-26T18:31:19.422Z,7.54
2017-05-26T18:33:46.123Z,7.66
2017-05-26T18:36:12.821Z,7.42
2017-05-26T18:38:39.544Z,7.22
2017-05-26T18:41:06.245Z,6.98
2017-05-26T18:43:32.947Z,6.70
2017-05-26T18:45:59.895Z,6.80
2017-05-26T18:48:26.616Z,6.94
2017-05-26T18:50:53.342Z,7.04
2017-05-26T18:53:20.084Z,8.28
2017-05-26T18:55:46.806Z,6.98
2017-05-26T18:58:13.519Z,6.96
2017-05-26T19:00:40.475Z,6.54
2017-05-26T19:03:07.201Z,7.02
2017-05-26T19:05:33.964Z,7.26
2017-05-26T19:08:00.676Z,7.66
2017-05-26T19:10:27.391Z,7.12
2017-05-26T19:12:54.124Z,6.46
2017-05-26T19:15:20.099Z,6.44
2017-05-26T19:17:46.858Z,7.00
2017-05-26T19:20:13.577Z,7.06
2017-05-26T19:22:40.301Z,6.04
2017-05-26T19:25:07.372Z,6.78
2017-05-26T19:27:34.089Z,6.62
2017-05-26T19:30:00.805Z,6.00
2017-05-26T19:32:27.577Z,7.12
2017-05-26T19:34:54.293Z,8.38
2017-05-26T19:37:21.024Z,7.10
2017-05-26T19:39:47.999Z,7.42
2017-05-26T19:42:14.771Z,10.16
2017-05-26T19:44:41.492Z,7.36
2017-05-26T19:47:09.772Z,6.86
2017-05-26T19:49:36.476Z,7.06
2017-05-26T19:52:03.231Z,7.48
2017-05-26T19:54:29.972Z,6.52
2017-05-26T19:57:02.104Z,7.26
2017-05-26T19:59:30.906Z,6.60
2017-05-26T20:01:57.615Z,7.38
2017-05-26T20:04:24.316Z,6.50
2017-05-26T20:06:51.030Z,8.48
2017-05-26T20:09:17.756Z,13.74
2017-05-26T20:11:44.464Z,15.30
2017-05-26T20:14:11.202Z,14.32
2017-05-26T20:16:37.970Z,10.80
2017-05-26T20:19:04.658Z,8.84
2017-05-26T20:21:31.384Z,8.78
2017-05-26T20:23:58.267Z,9.66
2017-05-26T20:26:24.964Z,10.56
2017-05-26T20:28:51.675Z,10.94
2017-05-26T20:31:18.363Z,9.88
2017-05-26T20:33:45.071Z,9.58
2017-05-26T20:36:11.958Z,9.42
2017-05-26T20:38:37.915Z,10.26
2017-05-26T20:41:04.635Z,9.42
2017-05-26T20:43:31.346Z,8.84
2017-05-26T20:45:58.042Z,10.10
2017-05-26T20:48:24.794Z,9.38
2017-05-26T20:50:51.519Z,8.94
2017-05-26T20:53:18.227Z,9.96
2017-05-26T20:55:44.214Z,9.94
2017-05-26T20:58:10.933Z,8.66
2017-05-26T21:00:37.648Z,9.00
2017-05-26T21:03:04.366Z,8.10
2017-05-26T21:05:31.076Z,8.54
2017-05-26T21:07:57.828Z,9.60
2017-05-26T21:10:24.532Z,9.32
2017-05-26T21:12:51.608Z,8.46
2017-05-26T21:15:17.606Z,8.24
2017-05-26T21:17:44.313Z,8.12
2017-05-26T21:20:11.010Z,8.38
2017-05-26T21:22:37.732Z,7.54
2017-05-26T21:25:04.447Z,8.30
2017-05-26T21:27:31.163Z,7.94
2017-05-26T21:29:58.269Z,7.98
2017-05-26T21:32:24.980Z,8.76
2017-05-26T21:34:51.679Z,6.98
2017-05-26T21:37:17.910Z,7.46
2017-05-26T21:39:44.655Z,7.92
2017-05-26T21:42:11.458Z,8.44
2017-05-26T21:44:38.150Z,9.04
2017-05-26T21:47:04.854Z,7.86
2017-05-26T21:49:31.610Z,8.60
2017-05-26T21:51:58.324Z,10.10
2017-05-26T21:54:25.034Z,7.20
2017-05-26T21:56:51.765Z,8.06
2017-05-26T21:59:18.461Z,7.56
2017-05-26T22:01:45.225Z,7.34
2017-05-26T22:04:11.213Z,8.78
2017-05-26T22:06:37.927Z,8.96
2017-05-26T22:09:04.631Z,9.64
2017-05-26T22:11:31.336Z,8.62
2017-05-26T22:13:58.111Z,8.00
2017-05-26T22:16:24.810Z,8.72
2017-05-26T22:18:51.515Z,9.28
2017-05-26T22:21:18.216Z,8.94
2017-05-26T22:23:44.914Z,9.14
2017-05-26T22:26:11.615Z,10.00
2017-05-26T22:28:38.413Z,8.92
2017-05-26T22:31:05.167Z,8.36
2017-05-26T22:33:31.928Z,9.20
2017-05-26T22:35:58.678Z,9.60
2017-05-26T22:38:25.394Z,9.90
2017-05-26T22:40:52.108Z,9.50
2017-05-26T22:43:18.807Z,9.86
2017-05-26T22:45:45.531Z,10.68
2017-05-26T22:48:12.248Z,9.26
2017-05-26T22:50:38.952Z,10.54
2017-05-26T22:53:05.655Z,11.36
2017-05-26T22:55:32.369Z,11.76
2017-05-26T22:57:59.054Z,11.86
2017-05-26T23:00:25.756Z,10.08
2017-05-26T23:02:52.470Z,9.22
2017-05-26T23:05:19.174Z,9.44
2017-05-26T23:07:45.977Z,10.24
2017-05-26T23:10:12.728Z,8.86
2017-05-26T23:12:39.419Z,9.52
2017-05-26T23:15:06.130Z,8.56
2017-05-26T23:17:32.820Z,9.42
2017-05-26T23:19:59.511Z,8.72
2017-05-26T23:22:26.219Z,9.46
2017-05-26T23:24:52.915Z,8.84
2017-05-26T23:27:19.782Z,9.14
2017-05-26T23:29:46.462Z,9.88
2017-05-26T23:32:13.163Z,9.50
2017-05-26T23:34:39.882Z,10.46
2017-05-26T23:37:06.024Z,9.94
2017-05-26T23:39:32.710Z,9.18
2017-05-26T23:41:59.517Z,10.48
2017-05-26T23:44:26.214Z,10.24
2017-05-26T23:46:52.911Z,12.56
2017-05-26T23:49:19.637Z,10.62
2017-05-26T23:51:46.324Z,8.50
2017-05-26T23:54:13.024Z,9.94
2017-05-26T23:56:39.727Z,10.58
2017-05-26T23:59:06.425Z,8.74
